createdAt,value
2023-01-29T00:01:10.136Z,95376.59
2023-01-29T00:03:39.046Z,95382.56
2023-01-29T00:06:05.517Z,95377.19
2023-01-29T00:08:32.146Z,95381.94
2023-01-29T00:10:58.892Z,95388.38
2023-01-29T00:13:25.292Z,95382.03
2023-01-29T00:15:51.780Z,95379.38
2023-01-29T00:18:18.158Z,95383.25
2023-01-29T00:20:45.885Z,95380.53
2023-01-29T00:23:12.260Z,95389.25
2023-01-29T00:25:38.645Z,95389.88
2023-01-29T00:28:05.018Z,95394.03
2023-01-29T00:30:31.397Z,95380.81
2023-01-29T00:32:57.735Z,95383.97
2023-01-29T00:35:24.120Z,95378.13
2023-01-29T00:37:50.757Z,95385.91
2023-01-29T00:40:17.477Z,95386.03
2023-01-29T00:42:44.009Z,95387.81
2023-01-29T00:45:10.369Z,95386.03
2023-01-29T00:47:39.834Z,95393.72
2023-01-29T00:50:08.662Z,95380.50
2023-01-29T00:52:35.154Z,95386.94
2023-01-29T00:55:01.509Z,95396.66
2023-01-29T00:57:27.998Z,95392.59
2023-01-29T00:59:57.456Z,95391.69
2023-01-29T01:02:23.972Z,95395.25
2023-01-29T01:04:50.404Z,95396.09
2023-01-29T01:07:16.887Z,95392.97
2023-01-29T01:09:43.499Z,95398.56
2023-01-29T01:12:09.853Z,95400.09
2023-01-29T01:14:37.600Z,95393.78
2023-01-29T01:17:04.063Z,95398.56
2023-01-29T01:19:30.422Z,95397.22
2023-01-29T01:21:56.775Z,95402.00
2023-01-29T01:24:23.169Z,95397.50
2023-01-29T01:26:49.579Z,95401.91
2023-01-29T01:29:15.977Z,95392.91
2023-01-29T01:31:42.368Z,95399.28
2023-01-29T01:34:12.898Z,95399.56
2023-01-29T01:36:39.269Z,95411.97
2023-01-29T01:39:05.607Z,95415.34
2023-01-29T01:41:31.957Z,95415.25
2023-01-29T01:43:58.380Z,95409.69
2023-01-29T01:46:24.758Z,95409.81
2023-01-29T01:48:51.097Z,95406.88
2023-01-29T01:51:17.483Z,95414.66
2023-01-29T01:53:44.263Z,95418.63
2023-01-29T01:56:10.872Z,95421.41
2023-01-29T01:58:37.607Z,95423.47
2023-01-29T02:01:11.155Z,95424.84
2023-01-29T02:03:37.525Z,95421.00
2023-01-29T02:06:06.173Z,95425.22
2023-01-29T02:08:32.639Z,95432.84
2023-01-29T02:10:59.111Z,95435.22
2023-01-29T02:13:25.482Z,95438.56
2023-01-29T02:15:51.862Z,95443.56
2023-01-29T02:18:18.282Z,95446.91
2023-01-29T02:20:45.653Z,95454.53
2023-01-29T02:23:12.035Z,95454.31
2023-01-29T02:25:38.398Z,95456.16
2023-01-29T02:28:04.829Z,95459.00
2023-01-29T02:30:31.177Z,95462.41
2023-01-29T02:32:57.899Z,95462.88
2023-01-29T02:35:24.294Z,95463.56
2023-01-29T02:37:50.789Z,95457.06
2023-01-29T02:40:17.491Z,95458.44
2023-01-29T02:42:44.096Z,95471.03
2023-01-29T02:45:10.486Z,95465.84
2023-01-29T02:47:37.084Z,95459.38
2023-01-29T02:50:03.826Z,95456.28
2023-01-29T02:52:30.443Z,95464.59
2023-01-29T02:54:58.977Z,95461.25
2023-01-29T02:57:28.063Z,95458.84
2023-01-29T02:59:54.505Z,95463.84
2023-01-29T03:02:20.954Z,95461.94
2023-01-29T03:04:47.420Z,95463.50
2023-01-29T03:07:13.896Z,95458.88
2023-01-29T03:09:40.372Z,95460.69
2023-01-29T03:12:07.204Z,95447.88
2023-01-29T03:14:33.562Z,95449.13
2023-01-29T03:16:59.968Z,95438.44
2023-01-29T03:19:26.322Z,95436.75
2023-01-29T03:21:53.289Z,95436.75
2023-01-29T03:24:20.777Z,95436.03
2023-01-29T03:26:47.568Z,95439.38
2023-01-29T03:29:14.946Z,95445.09
2023-01-29T03:31:43.919Z,95442.78
2023-01-29T03:34:10.348Z,95443.19
2023-01-29T03:36:37.851Z,95440.41
2023-01-29T03:39:07.235Z,95440.66
2023-01-29T03:41:33.629Z,95450.44
2023-01-29T03:44:00.450Z,95446.19
2023-01-29T03:46:26.834Z,95439.84
2023-01-29T03:48:53.282Z,95440.97
2023-01-29T03:51:20.219Z,95447.13
2023-01-29T03:53:46.700Z,95447.72
2023-01-29T03:56:13.082Z,95441.63
2023-01-29T03:58:39.479Z,95441.38
2023-01-29T04:01:07.106Z,95442.00
2023-01-29T04:03:33.977Z,95439.22
2023-01-29T04:06:00.356Z,95437.34
2023-01-29T04:08:26.974Z,95447.13
2023-01-29T04:10:53.479Z,95447.00
2023-01-29T04:13:19.993Z,95445.66
2023-01-29T04:15:46.380Z,95444.00
2023-01-29T04:18:13.866Z,95453.16
2023-01-29T04:20:42.317Z,95456.25
2023-01-29T04:23:08.886Z,95449.00
2023-01-29T04:25:35.259Z,95443.88
2023-01-29T04:28:01.751Z,95450.88
2023-01-29T04:30:28.546Z,95450.44
2023-01-29T04:32:54.922Z,95445.22
2023-01-29T04:35:21.295Z,95441.69
2023-01-29T04:37:47.807Z,95446.50
2023-01-29T04:40:14.424Z,95440.66
2023-01-29T04:42:40.987Z,95445.22
2023-01-29T04:45:07.382Z,95437.75
2023-01-29T04:47:41.747Z,95426.63
2023-01-29T04:50:08.132Z,95431.63
2023-01-29T04:52:34.585Z,95434.00
2023-01-29T04:55:00.948Z,95434.53
2023-01-29T04:57:27.721Z,95432.34
2023-01-29T04:59:54.228Z,95439.00
2023-01-29T05:02:20.578Z,95436.31
2023-01-29T05:04:46.937Z,95433.09
2023-01-29T05:07:13.334Z,95442.75
2023-01-29T05:09:39.717Z,95438.06
2023-01-29T05:12:06.148Z,95443.25
2023-01-29T05:14:32.511Z,95446.78
2023-01-29T05:16:58.866Z,95454.34
2023-01-29T05:19:25.571Z,95454.31
2023-01-29T05:21:51.931Z,95460.78
2023-01-29T05:24:18.352Z,95466.41
2023-01-29T05:26:44.740Z,95466.00
2023-01-29T05:29:11.084Z,95474.53
2023-01-29T05:31:40.157Z,95475.59
2023-01-29T05:34:06.522Z,95484.22
2023-01-29T05:36:33.303Z,95484.56
2023-01-29T05:38:59.674Z,95484.06
2023-01-29T05:41:26.461Z,95496.34
2023-01-29T05:43:52.813Z,95493.03
2023-01-29T05:46:19.205Z,95501.16
2023-01-29T05:48:46.116Z,95504.50
2023-01-29T05:51:12.558Z,95506.16
2023-01-29T05:53:38.927Z,95505.75
2023-01-29T05:56:06.519Z,95511.25
2023-01-29T05:58:32.862Z,95516.88
2023-01-29T06:01:02.314Z,95514.63
2023-01-29T06:03:28.666Z,95522.44
2023-01-29T06:05:56.864Z,95516.22
2023-01-29T06:08:23.248Z,95514.69
2023-01-29T06:10:49.598Z,95516.69
2023-01-29T06:13:15.941Z,95526.88
2023-01-29T06:15:42.325Z,95530.91
2023-01-29T06:18:08.704Z,95533.16
2023-01-29T06:20:35.082Z,95530.28
2023-01-29T06:23:01.450Z,95539.94
2023-01-29T06:25:27.827Z,95548.78
2023-01-29T06:27:54.305Z,95549.50
2023-01-29T06:30:20.702Z,95557.97
2023-01-29T06:32:47.069Z,95558.78
2023-01-29T06:35:13.760Z,95555.16
2023-01-29T06:37:40.736Z,95563.56
2023-01-29T06:40:08.122Z,95567.47
2023-01-29T06:42:34.720Z,95572.38
2023-01-29T06:45:01.085Z,95563.72
2023-01-29T06:47:27.432Z,95563.03
2023-01-29T06:49:54.888Z,95556.38
2023-01-29T06:52:21.318Z,95557.94
2023-01-29T06:54:47.666Z,95551.59
2023-01-29T06:57:14.033Z,95556.75
2023-01-29T06:59:40.575Z,95570.50
2023-01-29T07:02:07.073Z,95580.84
2023-01-29T07:04:33.458Z,95577.75
2023-01-29T07:06:59.871Z,95581.88
2023-01-29T07:09:27.319Z,95590.41
2023-01-29T07:11:53.892Z,95586.78
2023-01-29T07:14:22.289Z,95581.09
2023-01-29T07:16:49.292Z,95579.63
2023-01-29T07:19:15.630Z,95581.09
2023-01-29T07:21:42.112Z,95586.84
2023-01-29T07:24:08.531Z,95581.09
2023-01-29T07:26:35.855Z,95579.22
2023-01-29T07:29:02.239Z,95577.69
2023-01-29T07:31:28.901Z,95564.06
2023-01-29T07:33:55.340Z,95555.84
2023-01-29T07:36:21.731Z,95551.69
2023-01-29T07:38:48.304Z,95554.81
2023-01-29T07:41:14.856Z,95542.84
2023-01-29T07:43:41.260Z,95540.69
2023-01-29T07:46:07.885Z,95547.84
2023-01-29T07:48:36.458Z,95542.03
2023-01-29T07:51:02.859Z,95555.13
2023-01-29T07:53:29.422Z,95560.53
2023-01-29T07:55:56.810Z,95560.97
2023-01-29T07:58:23.210Z,95562.13
2023-01-29T08:00:49.575Z,95555.56
2023-01-29T08:03:15.961Z,95555.69
2023-01-29T08:05:44.352Z,95554.44
2023-01-29T08:08:10.861Z,95554.75
2023-01-29T08:10:39.742Z,95561.53
2023-01-29T08:13:06.161Z,95559.66
2023-01-29T08:15:32.522Z,95559.03
2023-01-29T08:17:58.961Z,95563.69
2023-01-29T08:20:25.391Z,95563.69
2023-01-29T08:22:51.788Z,95563.50
2023-01-29T08:25:18.139Z,95570.59
2023-01-29T08:27:44.772Z,95573.06
2023-01-29T08:30:11.130Z,95562.34
2023-01-29T08:32:37.614Z,95561.63
2023-01-29T08:35:03.980Z,95565.56
2023-01-29T08:37:31.352Z,95563.09
2023-01-29T08:39:57.850Z,95564.31
2023-01-29T08:42:24.318Z,95577.66
2023-01-29T08:44:50.753Z,95580.97
2023-01-29T08:47:17.122Z,95586.38
2023-01-29T08:49:44.482Z,95589.09
2023-01-29T08:52:10.889Z,95584.41
2023-01-29T08:54:37.318Z,95584.09
2023-01-29T08:57:03.827Z,95578.28
2023-01-29T08:59:30.231Z,95575.44
2023-01-29T09:01:56.626Z,95581.59
2023-01-29T09:04:23.332Z,95578.56
2023-01-29T09:06:51.981Z,95573.66
2023-01-29T09:09:20.693Z,95584.69
2023-01-29T09:11:47.251Z,95580.84
2023-01-29T09:14:13.682Z,95586.47
2023-01-29T09:16:40.043Z,95585.53
2023-01-29T09:19:06.417Z,95584.50
2023-01-29T09:21:32.761Z,95590.53
2023-01-29T09:23:59.159Z,95600.56
2023-01-29T09:26:26.177Z,95605.03
2023-01-29T09:28:52.581Z,95610.75
2023-01-29T09:31:19.127Z,95610.63
2023-01-29T09:33:45.506Z,95616.38
2023-01-29T09:36:13.934Z,95619.00
2023-01-29T09:38:40.352Z,95624.72
2023-01-29T09:41:06.722Z,95625.25
2023-01-29T09:43:33.132Z,95627.22
2023-01-29T09:45:59.589Z,95631.09
2023-01-29T09:48:26.239Z,95630.34
2023-01-29T09:50:52.713Z,95635.44
2023-01-29T09:53:20.130Z,95639.31
2023-01-29T09:55:47.166Z,95647.22
2023-01-29T09:58:13.558Z,95651.38
2023-01-29T10:00:40.038Z,95648.78
2023-01-29T10:05:33.844Z,95665.44
2023-01-29T10:08:00.218Z,95665.22
2023-01-29T10:10:26.633Z,95658.06
2023-01-29T10:12:53.009Z,95658.78
2023-01-29T10:15:19.585Z,95666.59
2023-01-29T10:17:46.003Z,95664.00
2023-01-29T10:20:12.366Z,95667.13
2023-01-29T10:22:38.748Z,95666.19
2023-01-29T10:25:05.136Z,95668.69
2023-01-29T10:27:32.048Z,95668.25
2023-01-29T10:29:58.483Z,95665.78
2023-01-29T10:32:24.866Z,95663.69
2023-01-29T10:34:53.283Z,95665.34
2023-01-29T10:37:19.690Z,95665.16
2023-01-29T10:39:48.396Z,95663.66
2023-01-29T10:42:14.776Z,95662.84
2023-01-29T10:44:41.121Z,95664.75
2023-01-29T10:47:07.760Z,95660.34
2023-01-29T10:49:34.187Z,95653.97
2023-01-29T10:52:00.687Z,95656.88
2023-01-29T10:54:29.103Z,95654.25
2023-01-29T10:56:55.574Z,95653.50
2023-01-29T10:59:24.911Z,95652.84
2023-01-29T11:01:51.626Z,95650.44
2023-01-29T11:04:18.266Z,95641.47
2023-01-29T11:06:44.656Z,95651.22
2023-01-29T11:09:11.035Z,95660.16
2023-01-29T11:11:37.625Z,95661.09
2023-01-29T11:14:04.039Z,95659.56
2023-01-29T11:16:30.389Z,95658.28
2023-01-29T11:18:56.885Z,95656.88
2023-01-29T11:21:23.481Z,95663.53
2023-01-29T11:23:51.932Z,95658.84
2023-01-29T11:26:18.331Z,95662.91
2023-01-29T11:28:44.713Z,95653.56
2023-01-29T11:31:11.199Z,95645.75
2023-01-29T11:33:37.606Z,95641.91
2023-01-29T11:36:06.294Z,95642.19
2023-01-29T11:38:32.655Z,95636.28
2023-01-29T11:40:58.991Z,95632.91
2023-01-29T11:43:25.672Z,95630.34
2023-01-29T11:45:52.140Z,95626.69
2023-01-29T11:48:18.496Z,95622.50
2023-01-29T11:50:44.879Z,95626.28
2023-01-29T11:53:11.341Z,95629.84
2023-01-29T11:55:49.703Z,95626.88
2023-01-29T11:58:16.879Z,95622.19
2023-01-29T12:00:43.388Z,95612.84
2023-01-29T12:03:09.738Z,95604.09
2023-01-29T12:05:36.152Z,95613.25
2023-01-29T12:08:02.523Z,95597.13
2023-01-29T12:10:30.120Z,95603.44
2023-01-29T12:12:57.657Z,95601.44
2023-01-29T12:15:24.023Z,95603.94
2023-01-29T12:17:50.411Z,95587.81
2023-01-29T12:20:16.964Z,95592.09
2023-01-29T12:22:43.523Z,95590.78
2023-01-29T12:25:09.887Z,95586.16
2023-01-29T12:27:36.248Z,95577.38
2023-01-29T12:30:02.645Z,95579.25
2023-01-29T12:32:29.047Z,95582.84
2023-01-29T12:34:55.456Z,95588.06
2023-01-29T12:37:22.151Z,95584.09
2023-01-29T12:39:48.539Z,95586.13
2023-01-29T12:42:15.695Z,95583.84
2023-01-29T12:44:42.143Z,95566.41
2023-01-29T12:47:08.541Z,95569.63
2023-01-29T12:49:35.293Z,95577.44
2023-01-29T12:52:01.655Z,95567.34
2023-01-29T16:57:58.026Z,95597.00
2023-01-29T17:00:27.282Z,95601.41
2023-01-29T17:02:53.809Z,95601.59
2023-01-29T17:05:22.472Z,95605.47
2023-01-29T17:07:49.107Z,95609.94
2023-01-29T17:15:57.160Z,95617.84
2023-01-29T17:18:27.189Z,95615.41
2023-01-29T17:20:53.687Z,95622.19
2023-01-29T17:23:33.550Z,95638.09
2023-01-29T17:26:00.280Z,95633.84
2023-01-29T17:28:29.427Z,95638.22
2023-01-29T17:31:10.832Z,95644.06
2023-01-29T18:36:15.979Z,95638.38
2023-01-29T18:38:46.533Z,95629.13
2023-01-29T18:41:13.247Z,95618.09
2023-01-29T18:46:38.176Z,95618.47
2023-01-29T18:49:15.868Z,95616.88
2023-01-29T18:51:43.255Z,95615.41
2023-01-29T18:54:18.349Z,95620.81
2023-01-29T18:57:13.360Z,95616.84
2023-01-29T18:59:33.124Z,95618.25
2023-01-29T19:01:59.582Z,95624.00
2023-01-29T19:04:26.043Z,95618.63
2023-01-29T19:06:52.433Z,95617.31
2023-01-29T19:09:18.958Z,95618.81
2023-01-29T19:11:45.354Z,95621.72
2023-01-29T19:14:11.714Z,95630.69
2023-01-29T19:16:39.094Z,95629.38
2023-01-29T19:19:05.504Z,95631.78
2023-01-29T19:21:32.349Z,95632.72
2023-01-29T19:23:58.728Z,95642.72
2023-01-29T19:26:25.187Z,95639.75
2023-01-29T19:28:52.016Z,95651.75
2023-01-29T19:31:18.891Z,95640.94
2023-01-29T19:33:45.292Z,95649.81
2023-01-29T19:36:12.021Z,95659.34
2023-01-29T19:38:38.758Z,95653.41
2023-01-29T19:41:05.778Z,95663.19
2023-01-29T19:43:39.560Z,95669.31
2023-01-29T19:46:05.940Z,95667.63
2023-01-29T19:48:32.412Z,95676.34
2023-01-29T19:50:58.852Z,95679.03
2023-01-29T19:53:25.809Z,95683.38
2023-01-29T19:55:52.269Z,95671.63
2023-01-29T19:58:18.795Z,95671.97
2023-01-29T20:00:47.814Z,95685.09
2023-01-29T20:03:14.552Z,95685.28
2023-01-29T20:05:40.926Z,95683.53
2023-01-29T20:08:08.341Z,95691.31
2023-01-29T20:10:35.278Z,95684.53
2023-01-29T20:13:02.730Z,95689.97
2023-01-29T20:15:29.423Z,95686.63
2023-01-29T20:17:55.936Z,95690.91
2023-01-29T20:20:23.371Z,95690.16
2023-01-29T20:22:55.039Z,95688.47
2023-01-29T20:25:23.735Z,95687.81
2023-01-29T20:27:50.231Z,95699.16
2023-01-29T20:30:17.155Z,95694.16
2023-01-29T20:32:43.751Z,95688.16
2023-01-29T20:35:11.221Z,95697.00
2023-01-29T20:37:37.630Z,95690.97
2023-01-29T20:40:04.245Z,95695.00
2023-01-29T20:42:30.902Z,95690.47
2023-01-29T20:44:57.239Z,95695.25
2023-01-29T20:47:23.707Z,95697.16
2023-01-29T20:49:50.294Z,95701.25
2023-01-29T20:52:16.643Z,95701.72
2023-01-29T20:54:43.428Z,95701.97
2023-01-29T20:57:10.038Z,95700.63
2023-01-29T20:59:36.436Z,95709.38
2023-01-29T21:02:03.236Z,95710.66
2023-01-29T21:04:29.704Z,95710.03
2023-01-29T21:06:57.115Z,95706.19
2023-01-29T21:09:25.575Z,95710.06
2023-01-29T21:11:51.967Z,95705.81
2023-01-29T21:14:18.519Z,95712.56
2023-01-29T21:16:45.075Z,95697.81
2023-01-29T21:19:11.916Z,95699.41
2023-01-29T21:21:38.372Z,95702.75
2023-01-29T21:24:04.736Z,95696.66
2023-01-29T21:26:31.583Z,95696.16
2023-01-29T21:29:00.056Z,95693.88
2023-01-29T21:31:26.502Z,95706.88
2023-01-29T21:33:52.872Z,95698.53
2023-01-29T21:36:19.274Z,95708.44
2023-01-29T21:38:48.093Z,95709.41
2023-01-29T21:41:15.565Z,95710.47
2023-01-29T21:43:41.923Z,95710.69
2023-01-29T21:46:09.419Z,95712.91
2023-01-29T21:48:35.885Z,95708.97
2023-01-29T21:51:02.290Z,95716.03
2023-01-29T21:53:28.718Z,95719.53
2023-01-29T21:55:55.267Z,95710.25
2023-01-29T21:58:22.209Z,95717.25
2023-01-29T22:00:48.762Z,95707.13
2023-01-29T22:03:15.282Z,95708.81
2023-01-29T22:05:41.686Z,95709.94
2023-01-29T22:08:08.040Z,95702.03
2023-01-29T22:10:34.659Z,95704.63
2023-01-29T22:13:01.172Z,95701.41
2023-01-29T22:15:27.669Z,95700.06
2023-01-29T22:17:54.023Z,95696.03
2023-01-29T22:20:20.626Z,95698.81
2023-01-29T22:22:47.115Z,95694.72
2023-01-29T22:25:13.514Z,95693.94
2023-01-29T22:27:39.978Z,95700.00
2023-01-29T22:30:06.376Z,95696.66
2023-01-29T22:32:33.327Z,95695.13
2023-01-29T22:34:59.814Z,95686.63
2023-01-29T22:37:26.333Z,95686.56
2023-01-29T22:39:52.725Z,95678.88
2023-01-29T22:42:19.297Z,95678.88
2023-01-29T22:44:45.738Z,95673.72
2023-01-29T22:47:12.183Z,95666.81
2023-01-29T22:49:38.600Z,95663.38
2023-01-29T22:52:05.179Z,95655.88
2023-01-29T22:54:31.657Z,95655.03
2023-01-29T22:56:58.081Z,95650.16
2023-01-29T22:59:25.126Z,95645.22
2023-01-29T23:01:51.761Z,95645.13
2023-01-29T23:04:18.184Z,95642.78
2023-01-29T23:06:44.704Z,95637.34
2023-01-29T23:09:11.284Z,95639.34
2023-01-29T23:11:37.794Z,95632.69
2023-01-29T23:14:04.225Z,95630.19
2023-01-29T23:16:30.960Z,95625.94
2023-01-29T23:18:57.560Z,95629.31
2023-01-29T23:21:24.992Z,95632.69
2023-01-29T23:23:51.420Z,95627.53
2023-01-29T23:26:18.200Z,95624.25
2023-01-29T23:28:44.685Z,95614.09
2023-01-29T23:31:11.140Z,95614.22
2023-01-29T23:33:37.514Z,95620.38
2023-01-29T23:36:03.899Z,95616.03
2023-01-29T23:38:30.290Z,95613.38
2023-01-29T23:40:56.665Z,95614.09
2023-01-29T23:43:24.065Z,95604.75
2023-01-29T23:45:51.597Z,95601.78
2023-01-29T23:48:18.036Z,95591.78
2023-01-29T23:50:44.436Z,95593.56
2023-01-29T23:53:10.843Z,95602.25
2023-01-29T23:55:37.463Z,95597.19
2023-01-29T23:58:03.844Z,95593.97
